Columbus, Ohio
Traffic Map
Current Weather Conditions
Columbus, Ohio
Scattered Clouds
Scattered Clouds

Feels Like: 6°
Wind Chill: Ceiling: Unl
Heat Index: Visibility: 10mi
Dew Point: Wind: 8mph
Humidity: 79% Direction: 330° (NNW)
Pressure: 30.23in Gusts: 0mph
Raw Report DataKCMH 230551Z 33007KT 10SM SCT035 08/04 A3023 RMK AO2 SLP238 T00780044 10100 20078 56007
Traffic Incident Summary
Active as of:
Severity:
Category:
InformationThere was an issue retrieving the traffic information for this location. Please try a different location or try again shortly.
Advertisements
Track Severe Weather on mobile